sensor_id;sensor_type;location;lat;lon;timestamp;P1;durP1;ratioP1;P2;durP2;ratioP2
40204;SDS011;26963;42.666;23.366;2023-06-24T00:02:03;10.93;;;9.90;;
40204;SDS011;26963;42.666;23.366;2023-06-24T00:04:29;11.30;;;10.07;;
40204;SDS011;26963;42.666;23.366;2023-06-24T00:06:55;11.75;;;10.55;;
40204;SDS011;26963;42.666;23.366;2023-06-24T00:09:24;11.65;;;10.55;;
40204;SDS011;26963;42.666;23.366;2023-06-24T00:11:55;11.40;;;10.40;;
40204;SDS011;26963;42.666;23.366;2023-06-24T00:14:22;13.32;;;10.50;;
40204;SDS011;26963;42.666;23.366;2023-06-24T00:16:52;11.60;;;10.45;;
40204;SDS011;26963;42.666;23.366;2023-06-24T00:19:19;12.18;;;10.85;;
40204;SDS011;26963;42.666;23.366;2023-06-24T00:21:46;12.13;;;10.93;;
40204;SDS011;26963;42.666;23.366;2023-06-24T00:24:12;12.10;;;10.55;;
40204;SDS011;26963;42.666;23.366;2023-06-24T00:26:38;13.35;;;10.38;;
40204;SDS011;26963;42.666;23.366;2023-06-24T00:29:03;11.65;;;10.48;;
40204;SDS011;26963;42.666;23.366;2023-06-24T00:31:29;12.90;;;10.25;;
40204;SDS011;26963;42.666;23.366;2023-06-24T00:33:54;15.13;;;10.27;;
40204;SDS011;26963;42.666;23.366;2023-06-24T00:36:21;13.65;;;10.50;;
40204;SDS011;26963;42.666;23.366;2023-06-24T00:38:48;13.27;;;10.30;;
40204;SDS011;26963;42.666;23.366;2023-06-24T00:41:14;12.07;;;10.80;;
40204;SDS011;26963;42.666;23.366;2023-06-24T00:43:42;14.18;;;10.70;;
40204;SDS011;26963;42.666;23.366;2023-06-24T00:46:07;12.30;;;11.10;;
40204;SDS011;26963;42.666;23.366;2023-06-24T00:48:33;11.57;;;10.38;;
40204;SDS011;26963;42.666;23.366;2023-06-24T00:50:59;12.35;;;10.40;;
40204;SDS011;26963;42.666;23.366;2023-06-24T00:53:24;11.75;;;10.55;;
40204;SDS011;26963;42.666;23.366;2023-06-24T00:55:50;12.02;;;10.88;;
40204;SDS011;26963;42.666;23.366;2023-06-24T00:58:17;12.88;;;10.65;;
40204;SDS011;26963;42.666;23.366;2023-06-24T01:00:46;11.45;;;10.05;;
40204;SDS011;26963;42.666;23.366;2023-06-24T01:03:14;13.30;;;10.40;;
40204;SDS011;26963;42.666;23.366;2023-06-24T01:05:48;11.70;;;10.60;;
40204;SDS011;26963;42.666;23.366;2023-06-24T01:08:14;11.60;;;10.35;;
40204;SDS011;26963;42.666;23.366;2023-06-24T01:10:41;12.43;;;10.60;;
40204;SDS011;26963;42.666;23.366;2023-06-24T01:13:07;11.98;;;10.68;;
40204;SDS011;26963;42.666;23.366;2023-06-24T01:15:34;13.07;;;9.90;;
40204;SDS011;26963;42.666;23.366;2023-06-24T01:18:24;12.95;;;11.63;;
40204;SDS011;26963;42.666;23.366;2023-06-24T01:20:52;11.68;;;10.30;;
40204;SDS011;26963;42.666;23.366;2023-06-24T01:26:39;11.38;;;10.15;;
40204;SDS011;26963;42.666;23.366;2023-06-24T01:35:00;12.77;;;11.48;;
40204;SDS011;26963;42.666;23.366;2023-06-24T01:37:43;13.70;;;10.88;;
40204;SDS011;26963;42.666;23.366;2023-06-24T01:42:50;13.40;;;10.57;;
40204;SDS011;26963;42.666;23.366;2023-06-24T01:45:28;12.40;;;11.13;;
40204;SDS011;26963;42.666;23.366;2023-06-24T01:48:01;11.43;;;10.32;;
40204;SDS011;26963;42.666;23.366;2023-06-24T01:50:33;11.90;;;10.60;;
40204;SDS011;26963;42.666;23.366;2023-06-24T01:53:01;11.50;;;10.15;;
40204;SDS011;26963;42.666;23.366;2023-06-24T01:55:30;12.07;;;10.57;;
40204;SDS011;26963;42.666;23.366;2023-06-24T01:57:58;12.55;;;11.35;;
40204;SDS011;26963;42.666;23.366;2023-06-24T02:00:28;12.02;;;10.82;;
40204;SDS011;26963;42.666;23.366;2023-06-24T02:02:54;12.50;;;11.00;;
40204;SDS011;26963;42.666;23.366;2023-06-24T02:05:21;12.55;;;11.32;;
40204;SDS011;26963;42.666;23.366;2023-06-24T02:07:50;13.13;;;11.82;;
40204;SDS011;26963;42.666;23.366;2023-06-24T02:10:18;13.07;;;11.85;;
40204;SDS011;26963;42.666;23.366;2023-06-24T02:12:45;12.68;;;11.38;;
40204;SDS011;26963;42.666;23.366;2023-06-24T02:15:13;12.52;;;11.32;;
40204;SDS011;26963;42.666;23.366;2023-06-24T02:17:40;13.70;;;11.50;;
40204;SDS011;26963;42.666;23.366;2023-06-24T02:20:07;14.55;;;11.60;;
40204;SDS011;26963;42.666;23.366;2023-06-24T02:22:36;14.02;;;11.15;;
40204;SDS011;26963;42.666;23.366;2023-06-24T02:25:04;13.75;;;11.55;;
40204;SDS011;26963;42.666;23.366;2023-06-24T02:27:31;12.55;;;11.18;;
40204;SDS011;26963;42.666;23.366;2023-06-24T02:29:58;12.40;;;11.23;;
40204;SDS011;26963;42.666;23.366;2023-06-24T02:32:25;12.55;;;11.25;;
40204;SDS011;26963;42.666;23.366;2023-06-24T02:34:51;13.10;;;11.77;;
40204;SDS011;26963;42.666;23.366;2023-06-24T02:37:17;12.95;;;11.60;;
40204;SDS011;26963;42.666;23.366;2023-06-24T02:39:43;13.13;;;11.82;;
40204;SDS011;26963;42.666;23.366;2023-06-24T02:42:12;13.25;;;11.85;;
40204;SDS011;26963;42.666;23.366;2023-06-24T02:44:41;12.48;;;11.25;;
40204;SDS011;26963;42.666;23.366;2023-06-24T02:47:09;12.75;;;11.52;;
40204;SDS011;26963;42.666;23.366;2023-06-24T02:49:37;12.35;;;11.15;;
40204;SDS011;26963;42.666;23.366;2023-06-24T02:52:04;13.55;;;12.15;;
40204;SDS011;26963;42.666;23.366;2023-06-24T02:54:30;13.43;;;11.98;;
40204;SDS011;26963;42.666;23.366;2023-06-24T02:56:57;13.13;;;11.60;;
40204;SDS011;26963;42.666;23.366;2023-06-24T02:59:24;12.88;;;11.65;;
40204;SDS011;26963;42.666;23.366;2023-06-24T03:01:50;14.75;;;12.32;;
40204;SDS011;26963;42.666;23.366;2023-06-24T03:04:17;18.13;;;12.27;;
40204;SDS011;26963;42.666;23.366;2023-06-24T03:06:44;16.13;;;12.23;;
40204;SDS011;26963;42.666;23.366;2023-06-24T03:09:10;13.90;;;12.45;;
40204;SDS011;26963;42.666;23.366;2023-06-24T03:11:42;16.80;;;12.80;;
40204;SDS011;26963;42.666;23.366;2023-06-24T03:14:09;14.48;;;13.05;;
40204;SDS011;26963;42.666;23.366;2023-06-24T03:16:35;14.35;;;12.70;;
40204;SDS011;26963;42.666;23.366;2023-06-24T03:19:01;16.05;;;12.75;;
40204;SDS011;26963;42.666;23.366;2023-06-24T03:21:27;16.40;;;13.82;;
40204;SDS011;26963;42.666;23.366;2023-06-24T03:23:54;14.45;;;12.63;;
40204;SDS011;26963;42.666;23.366;2023-06-24T03:26:20;14.05;;;12.48;;
40204;SDS011;26963;42.666;23.366;2023-06-24T03:28:45;14.20;;;12.88;;
40204;SDS011;26963;42.666;23.366;2023-06-24T03:31:11;15.60;;;14.10;;
40204;SDS011;26963;42.666;23.366;2023-06-24T03:33:37;17.92;;;14.63;;
40204;SDS011;26963;42.666;23.366;2023-06-24T03:36:03;18.38;;;14.43;;
40204;SDS011;26963;42.666;23.366;2023-06-24T03:38:28;17.95;;;14.50;;
40204;SDS011;26963;42.666;23.366;2023-06-24T03:40:54;15.50;;;13.95;;
40204;SDS011;26963;42.666;23.366;2023-06-24T03:43:19;17.05;;;15.25;;
40204;SDS011;26963;42.666;23.366;2023-06-24T03:45:45;16.27;;;14.55;;
40204;SDS011;26963;42.666;23.366;2023-06-24T03:48:10;18.45;;;15.18;;
40204;SDS011;26963;42.666;23.366;2023-06-24T03:50:36;15.18;;;12.50;;
40204;SDS011;26963;42.666;23.366;2023-06-24T03:53:02;16.17;;;13.27;;
40204;SDS011;26963;42.666;23.366;2023-06-24T03:55:29;14.93;;;13.40;;
40204;SDS011;26963;42.666;23.366;2023-06-24T03:57:54;21.23;;;14.48;;
40204;SDS011;26963;42.666;23.366;2023-06-24T04:00:20;16.83;;;15.23;;
40204;SDS011;26963;42.666;23.366;2023-06-24T04:02:46;16.38;;;14.65;;
40204;SDS011;26963;42.666;23.366;2023-06-24T04:05:12;16.73;;;14.90;;
40204;SDS011;26963;42.666;23.366;2023-06-24T04:07:37;17.10;;;15.48;;
40204;SDS011;26963;42.666;23.366;2023-06-24T04:10:04;17.52;;;15.25;;
40204;SDS011;26963;42.666;23.366;2023-06-24T04:12:36;16.52;;;14.63;;
40204;SDS011;26963;42.666;23.366;2023-06-24T04:15:02;17.52;;;15.73;;
40204;SDS011;26963;42.666;23.366;2023-06-24T04:17:29;18.92;;;15.45;;
40204;SDS011;26963;42.666;23.366;2023-06-24T04:19:55;18.45;;;16.65;;
40204;SDS011;26963;42.666;23.366;2023-06-24T04:22:21;18.42;;;16.52;;
40204;SDS011;26963;42.666;23.366;2023-06-24T04:24:46;17.92;;;16.10;;
40204;SDS011;26963;42.666;23.366;2023-06-24T04:27:12;15.90;;;14.15;;
40204;SDS011;26963;42.666;23.366;2023-06-24T04:29:37;17.00;;;15.20;;
40204;SDS011;26963;42.666;23.366;2023-06-24T04:32:03;16.38;;;14.75;;
40204;SDS011;26963;42.666;23.366;2023-06-24T04:34:29;19.40;;;14.27;;
40204;SDS011;26963;42.666;23.366;2023-06-24T04:36:55;18.73;;;14.65;;
40204;SDS011;26963;42.666;23.366;2023-06-24T04:39:21;15.48;;;13.95;;
40204;SDS011;26963;42.666;23.366;2023-06-24T04:41:46;15.95;;;14.35;;
40204;SDS011;26963;42.666;23.366;2023-06-24T04:44:13;16.00;;;14.38;;
40204;SDS011;26963;42.666;23.366;2023-06-24T04:46:39;14.23;;;12.93;;
40204;SDS011;26963;42.666;23.366;2023-06-24T04:49:05;13.95;;;12.55;;
40204;SDS011;26963;42.666;23.366;2023-06-24T04:51:32;12.85;;;11.52;;
40204;SDS011;26963;42.666;23.366;2023-06-24T04:53:58;13.85;;;11.95;;
40204;SDS011;26963;42.666;23.366;2023-06-24T04:56:24;15.32;;;13.57;;
40204;SDS011;26963;42.666;23.366;2023-06-24T04:58:50;13.23;;;11.93;;
40204;SDS011;26963;42.666;23.366;2023-06-24T05:01:15;13.43;;;12.10;;
40204;SDS011;26963;42.666;23.366;2023-06-24T05:03:42;13.70;;;12.40;;
40204;SDS011;26963;42.666;23.366;2023-06-24T05:06:08;13.40;;;11.35;;
40204;SDS011;26963;42.666;23.366;2023-06-24T05:08:33;12.63;;;9.93;;
40204;SDS011;26963;42.666;23.366;2023-06-24T05:10:59;11.23;;;10.10;;
40204;SDS011;26963;42.666;23.366;2023-06-24T05:13:25;14.57;;;10.45;;
40204;SDS011;26963;42.666;23.366;2023-06-24T05:15:52;15.35;;;10.40;;
40204;SDS011;26963;42.666;23.366;2023-06-24T05:18:17;11.52;;;10.32;;
40204;SDS011;26963;42.666;23.366;2023-06-24T05:20:43;13.18;;;10.20;;
40204;SDS011;26963;42.666;23.366;2023-06-24T05:23:09;13.43;;;10.63;;
40204;SDS011;26963;42.666;23.366;2023-06-24T05:25:34;11.32;;;10.15;;
40204;SDS011;26963;42.666;23.366;2023-06-24T05:28:00;12.13;;;10.82;;
40204;SDS011;26963;42.666;23.366;2023-06-24T05:30:26;11.82;;;10.63;;
40204;SDS011;26963;42.666;23.366;2023-06-24T05:32:51;12.63;;;10.82;;
40204;SDS011;26963;42.666;23.366;2023-06-24T05:35:17;12.55;;;11.30;;
40204;SDS011;26963;42.666;23.366;2023-06-24T05:37:43;16.55;;;12.30;;
40204;SDS011;26963;42.666;23.366;2023-06-24T05:40:08;17.13;;;12.75;;
40204;SDS011;26963;42.666;23.366;2023-06-24T05:42:34;18.10;;;13.90;;
40204;SDS011;26963;42.666;23.366;2023-06-24T05:45:00;18.45;;;14.95;;
40204;SDS011;26963;42.666;23.366;2023-06-24T05:47:26;16.85;;;15.02;;
40204;SDS011;26963;42.666;23.366;2023-06-24T05:49:51;18.63;;;15.38;;
40204;SDS011;26963;42.666;23.366;2023-06-24T05:52:17;16.85;;;15.20;;
40204;SDS011;26963;42.666;23.366;2023-06-24T05:54:42;18.58;;;13.65;;
40204;SDS011;26963;42.666;23.366;2023-06-24T05:57:08;19.10;;;15.82;;
40204;SDS011;26963;42.666;23.366;2023-06-24T05:59:34;20.30;;;16.40;;
40204;SDS011;26963;42.666;23.366;2023-06-24T06:01:59;19.88;;;17.92;;
40204;SDS011;26963;42.666;23.366;2023-06-24T06:04:27;20.17;;;17.05;;
40204;SDS011;26963;42.666;23.366;2023-06-24T06:06:53;16.50;;;14.88;;
40204;SDS011;26963;42.666;23.366;2023-06-24T06:09:19;18.58;;;16.05;;
40204;SDS011;26963;42.666;23.366;2023-06-24T06:11:46;19.50;;;17.00;;
40204;SDS011;26963;42.666;23.366;2023-06-24T06:14:13;18.60;;;15.90;;
40204;SDS011;26963;42.666;23.366;2023-06-24T06:16:39;17.33;;;15.55;;
40204;SDS011;26963;42.666;23.366;2023-06-24T06:19:04;17.67;;;15.68;;
40204;SDS011;26963;42.666;23.366;2023-06-24T06:21:30;18.33;;;15.18;;
40204;SDS011;26963;42.666;23.366;2023-06-24T06:23:56;16.45;;;13.65;;
40204;SDS011;26963;42.666;23.366;2023-06-24T06:26:22;15.23;;;12.88;;
40204;SDS011;26963;42.666;23.366;2023-06-24T06:28:47;16.60;;;11.90;;
40204;SDS011;26963;42.666;23.366;2023-06-24T06:31:13;13.95;;;12.55;;
40204;SDS011;26963;42.666;23.366;2023-06-24T06:33:39;14.18;;;11.27;;
40204;SDS011;26963;42.666;23.366;2023-06-24T06:36:05;14.18;;;11.35;;
40204;SDS011;26963;42.666;23.366;2023-06-24T06:38:32;15.40;;;11.88;;
40204;SDS011;26963;42.666;23.366;2023-06-24T06:40:58;13.23;;;9.90;;
40204;SDS011;26963;42.666;23.366;2023-06-24T06:43:24;12.38;;;11.13;;
40204;SDS011;26963;42.666;23.366;2023-06-24T06:45:50;12.05;;;10.77;;
40204;SDS011;26963;42.666;23.366;2023-06-24T06:48:15;12.45;;;10.23;;
40204;SDS011;26963;42.666;23.366;2023-06-24T06:50:41;11.52;;;10.45;;
40204;SDS011;26963;42.666;23.366;2023-06-24T06:53:06;15.68;;;9.55;;
40204;SDS011;26963;42.666;23.366;2023-06-24T06:55:32;11.93;;;10.73;;
40204;SDS011;26963;42.666;23.366;2023-06-24T06:57:57;11.32;;;10.10;;
40204;SDS011;26963;42.666;23.366;2023-06-24T07:00:23;10.77;;;9.27;;
40204;SDS011;26963;42.666;23.366;2023-06-24T07:02:48;13.70;;;12.38;;
40204;SDS011;26963;42.666;23.366;2023-06-24T07:05:14;10.52;;;9.45;;
40204;SDS011;26963;42.666;23.366;2023-06-24T07:07:39;11.18;;;9.07;;
40204;SDS011;26963;42.666;23.366;2023-06-24T07:10:05;10.45;;;9.35;;
40204;SDS011;26963;42.666;23.366;2023-06-24T07:12:31;11.27;;;9.02;;
40204;SDS011;26963;42.666;23.366;2023-06-24T07:14:57;15.80;;;9.27;;
40204;SDS011;26963;42.666;23.366;2023-06-24T07:17:22;13.25;;;11.93;;
40204;SDS011;26963;42.666;23.366;2023-06-24T07:19:48;14.93;;;13.52;;
40204;SDS011;26963;42.666;23.366;2023-06-24T07:22:14;17.05;;;13.07;;
40204;SDS011;26963;42.666;23.366;2023-06-24T07:24:41;18.65;;;11.43;;
40204;SDS011;26963;42.666;23.366;2023-06-24T07:27:07;16.23;;;13.15;;
40204;SDS011;26963;42.666;23.366;2023-06-24T07:29:32;11.45;;;9.25;;
40204;SDS011;26963;42.666;23.366;2023-06-24T07:31:58;9.00;;;8.23;;
40204;SDS011;26963;42.666;23.366;2023-06-24T07:34:24;9.27;;;8.40;;
40204;SDS011;26963;42.666;23.366;2023-06-24T07:36:50;12.07;;;9.90;;
40204;SDS011;26963;42.666;23.366;2023-06-24T07:39:16;10.95;;;9.27;;
40204;SDS011;26963;42.666;23.366;2023-06-24T07:41:42;10.55;;;7.82;;
40204;SDS011;26963;42.666;23.366;2023-06-24T07:44:08;10.38;;;9.38;;
40204;SDS011;26963;42.666;23.366;2023-06-24T07:46:33;12.50;;;9.30;;
40204;SDS011;26963;42.666;23.366;2023-06-24T07:48:59;10.93;;;8.63;;
40204;SDS011;26963;42.666;23.366;2023-06-24T07:51:25;10.15;;;8.75;;
40204;SDS011;26963;42.666;23.366;2023-06-24T07:53:51;11.68;;;9.20;;
40204;SDS011;26963;42.666;23.366;2023-06-24T07:56:17;8.75;;;7.90;;
40204;SDS011;26963;42.666;23.366;2023-06-24T07:58:43;9.40;;;8.55;;
40204;SDS011;26963;42.666;23.366;2023-06-24T08:01:08;10.65;;;9.20;;
40204;SDS011;26963;42.666;23.366;2023-06-24T08:03:34;11.57;;;9.70;;
40204;SDS011;26963;42.666;23.366;2023-06-24T08:06:02;11.70;;;8.82;;
40204;SDS011;26963;42.666;23.366;2023-06-24T08:08:27;9.77;;;8.85;;
40204;SDS011;26963;42.666;23.366;2023-06-24T08:10:53;10.60;;;9.55;;
40204;SDS011;26963;42.666;23.366;2023-06-24T08:13:18;11.07;;;9.60;;
40204;SDS011;26963;42.666;23.366;2023-06-24T08:15:44;9.85;;;8.90;;
40204;SDS011;26963;42.666;23.366;2023-06-24T08:18:10;10.13;;;8.27;;
40204;SDS011;26963;42.666;23.366;2023-06-24T08:20:35;11.35;;;8.70;;
40204;SDS011;26963;42.666;23.366;2023-06-24T08:23:01;8.95;;;8.10;;
40204;SDS011;26963;42.666;23.366;2023-06-24T08:25:27;12.48;;;8.15;;
40204;SDS011;26963;42.666;23.366;2023-06-24T08:27:52;10.35;;;8.48;;
40204;SDS011;26963;42.666;23.366;2023-06-24T08:30:18;13.38;;;8.68;;
40204;SDS011;26963;42.666;23.366;2023-06-24T08:32:44;17.60;;;8.95;;
40204;SDS011;26963;42.666;23.366;2023-06-24T08:35:10;12.18;;;8.13;;
40204;SDS011;26963;42.666;23.366;2023-06-24T08:37:36;9.68;;;8.68;;
40204;SDS011;26963;42.666;23.366;2023-06-24T08:40:03;9.40;;;8.55;;
40204;SDS011;26963;42.666;23.366;2023-06-24T08:42:31;8.52;;;7.70;;
40204;SDS011;26963;42.666;23.366;2023-06-24T08:44:57;9.02;;;8.23;;
40204;SDS011;26963;42.666;23.366;2023-06-24T08:47:23;12.32;;;8.18;;
40204;SDS011;26963;42.666;23.366;2023-06-24T08:49:53;9.52;;;8.10;;
40204;SDS011;26963;42.666;23.366;2023-06-24T08:52:27;11.25;;;8.20;;
40204;SDS011;26963;42.666;23.366;2023-06-24T08:54:55;8.57;;;7.75;;
40204;SDS011;26963;42.666;23.366;2023-06-24T08:57:23;9.23;;;8.02;;
40204;SDS011;26963;42.666;23.366;2023-06-24T08:59:49;9.85;;;8.70;;
40204;SDS011;26963;42.666;23.366;2023-06-24T09:02:14;9.20;;;8.30;;
40204;SDS011;26963;42.666;23.366;2023-06-24T09:04:40;9.18;;;8.27;;
40204;SDS011;26963;42.666;23.366;2023-06-24T09:07:06;10.10;;;9.02;;
40204;SDS011;26963;42.666;23.366;2023-06-24T09:09:31;9.55;;;8.55;;
40204;SDS011;26963;42.666;23.366;2023-06-24T09:11:58;30.60;;;24.88;;
40204;SDS011;26963;42.666;23.366;2023-06-24T09:14:25;11.43;;;10.23;;
40204;SDS011;26963;42.666;23.366;2023-06-24T09:16:53;10.38;;;9.38;;
40204;SDS011;26963;42.666;23.366;2023-06-24T09:19:23;17.20;;;12.32;;
40204;SDS011;26963;42.666;23.366;2023-06-24T09:21:50;11.52;;;9.38;;
40204;SDS011;26963;42.666;23.366;2023-06-24T09:24:17;10.00;;;9.00;;
40204;SDS011;26963;42.666;23.366;2023-06-24T09:26:44;14.77;;;13.15;;
40204;SDS011;26963;42.666;23.366;2023-06-24T09:29:13;10.35;;;9.20;;
40204;SDS011;26963;42.666;23.366;2023-06-24T09:31:50;13.88;;;9.35;;
40204;SDS011;26963;42.666;23.366;2023-06-24T09:34:21;10.85;;;8.98;;
40204;SDS011;26963;42.666;23.366;2023-06-24T09:36:51;10.40;;;9.23;;
40204;SDS011;26963;42.666;23.366;2023-06-24T09:39:18;10.30;;;8.88;;
40204;SDS011;26963;42.666;23.366;2023-06-24T09:41:45;11.45;;;10.32;;
40204;SDS011;26963;42.666;23.366;2023-06-24T09:44:15;10.73;;;9.60;;
40204;SDS011;26963;42.666;23.366;2023-06-24T09:46:41;12.15;;;9.57;;
40204;SDS011;26963;42.666;23.366;2023-06-24T09:49:08;10.88;;;9.73;;
40204;SDS011;26963;42.666;23.366;2023-06-24T09:51:36;10.73;;;9.60;;
40204;SDS011;26963;42.666;23.366;2023-06-24T09:54:05;12.15;;;10.13;;
40204;SDS011;26963;42.666;23.366;2023-06-24T09:56:31;11.25;;;10.15;;
40204;SDS011;26963;42.666;23.366;2023-06-24T09:59:00;12.45;;;11.13;;
40204;SDS011;26963;42.666;23.366;2023-06-24T10:01:26;11.65;;;10.18;;
40204;SDS011;26963;42.666;23.366;2023-06-24T10:03:52;14.43;;;10.18;;
40204;SDS011;26963;42.666;23.366;2023-06-24T10:06:18;12.48;;;10.40;;
40204;SDS011;26963;42.666;23.366;2023-06-24T10:08:44;12.75;;;10.15;;
40204;SDS011;26963;42.666;23.366;2023-06-24T10:11:10;12.90;;;10.48;;
40204;SDS011;26963;42.666;23.366;2023-06-24T10:13:36;11.55;;;10.40;;
40204;SDS011;26963;42.666;23.366;2023-06-24T10:16:02;13.15;;;10.40;;
40204;SDS011;26963;42.666;23.366;2023-06-24T10:20:56;10.55;;;9.45;;
40204;SDS011;26963;42.666;23.366;2023-06-24T10:23:29;11.85;;;9.77;;
40204;SDS011;26963;42.666;23.366;2023-06-24T10:26:22;11.02;;;9.80;;
40204;SDS011;26963;42.666;23.366;2023-06-24T10:32:00;10.27;;;9.10;;
40204;SDS011;26963;42.666;23.366;2023-06-24T10:34:29;10.10;;;9.18;;
40204;SDS011;26963;42.666;23.366;2023-06-24T10:44:49;10.77;;;9.68;;
40204;SDS011;26963;42.666;23.366;2023-06-24T10:47:15;10.20;;;9.20;;
40204;SDS011;26963;42.666;23.366;2023-06-24T10:49:41;11.55;;;9.07;;
40204;SDS011;26963;42.666;23.366;2023-06-24T10:52:07;11.18;;;8.90;;
40204;SDS011;26963;42.666;23.366;2023-06-24T10:54:34;10.80;;;9.43;;
40204;SDS011;26963;42.666;23.366;2023-06-24T10:57:00;9.13;;;8.13;;
40204;SDS011;26963;42.666;23.366;2023-06-24T10:59:26;9.43;;;8.10;;
40204;SDS011;26963;42.666;23.366;2023-06-24T11:01:55;11.23;;;8.00;;
40204;SDS011;26963;42.666;23.366;2023-06-24T11:04:20;11.32;;;7.97;;
40204;SDS011;26963;42.666;23.366;2023-06-24T11:07:01;9.18;;;8.02;;
40204;SDS011;26963;42.666;23.366;2023-06-24T11:09:27;9.45;;;7.88;;
40204;SDS011;26963;42.666;23.366;2023-06-24T11:11:53;8.60;;;7.80;;
40204;SDS011;26963;42.666;23.366;2023-06-24T11:14:21;9.23;;;8.20;;
40204;SDS011;26963;42.666;23.366;2023-06-24T11:16:47;9.45;;;8.40;;
40204;SDS011;26963;42.666;23.366;2023-06-24T11:19:13;9.43;;;7.95;;
40204;SDS011;26963;42.666;23.366;2023-06-24T11:21:38;11.23;;;8.00;;
40204;SDS011;26963;42.666;23.366;2023-06-24T11:24:04;10.20;;;7.80;;
40204;SDS011;26963;42.666;23.366;2023-06-24T11:26:30;12.70;;;8.73;;
40204;SDS011;26963;42.666;23.366;2023-06-24T11:28:56;9.00;;;7.30;;
40204;SDS011;26963;42.666;23.366;2023-06-24T11:31:27;9.23;;;6.85;;
40204;SDS011;26963;42.666;23.366;2023-06-24T11:36:19;8.98;;;7.40;;
40204;SDS011;26963;42.666;23.366;2023-06-24T11:38:48;9.27;;;7.10;;
40204;SDS011;26963;42.666;23.366;2023-06-24T11:41:13;7.47;;;6.78;;
40204;SDS011;26963;42.666;23.366;2023-06-24T11:43:46;11.98;;;7.47;;
40204;SDS011;26963;42.666;23.366;2023-06-24T11:49:14;7.22;;;6.28;;
40204;SDS011;26963;42.666;23.366;2023-06-24T11:51:45;8.70;;;6.90;;
40204;SDS011;26963;42.666;23.366;2023-06-24T11:54:15;8.27;;;7.10;;
40204;SDS011;26963;42.666;23.366;2023-06-24T11:56:42;8.10;;;7.30;;
40204;SDS011;26963;42.666;23.366;2023-06-24T11:59:20;9.32;;;7.50;;
40204;SDS011;26963;42.666;23.366;2023-06-24T12:01:56;8.45;;;7.55;;
40204;SDS011;26963;42.666;23.366;2023-06-24T12:04:30;8.23;;;7.40;;
40204;SDS011;26963;42.666;23.366;2023-06-24T12:06:57;11.20;;;7.43;;
40204;SDS011;26963;42.666;23.366;2023-06-24T12:09:23;9.32;;;7.60;;
40204;SDS011;26963;42.666;23.366;2023-06-24T12:11:49;8.82;;;7.65;;
40204;SDS011;26963;42.666;23.366;2023-06-24T12:14:15;8.35;;;7.55;;
40204;SDS011;26963;42.666;23.366;2023-06-24T12:16:41;9.98;;;7.88;;
40204;SDS011;26963;42.666;23.366;2023-06-24T12:19:07;8.77;;;7.78;;
40204;SDS011;26963;42.666;23.366;2023-06-24T12:21:33;9.68;;;7.50;;
40204;SDS011;26963;42.666;23.366;2023-06-24T12:23:59;9.23;;;7.20;;
40204;SDS011;26963;42.666;23.366;2023-06-24T12:26:25;11.13;;;7.18;;
40204;SDS011;26963;42.666;23.366;2023-06-24T12:28:53;9.73;;;7.63;;
40204;SDS011;26963;42.666;23.366;2023-06-24T12:31:19;8.48;;;7.60;;
40204;SDS011;26963;42.666;23.366;2023-06-24T12:33:45;8.82;;;7.78;;
40204;SDS011;26963;42.666;23.366;2023-06-24T12:36:11;10.45;;;8.32;;
40204;SDS011;26963;42.666;23.366;2023-06-24T12:38:36;9.48;;;8.57;;
40204;SDS011;26963;42.666;23.366;2023-06-24T12:41:02;10.52;;;8.25;;
40204;SDS011;26963;42.666;23.366;2023-06-24T12:43:27;13.32;;;8.43;;
40204;SDS011;26963;42.666;23.366;2023-06-24T12:45:53;9.13;;;8.30;;
40204;SDS011;26963;42.666;23.366;2023-06-24T12:48:18;10.73;;;7.82;;
40204;SDS011;26963;42.666;23.366;2023-06-24T12:50:44;10.52;;;7.88;;
40204;SDS011;26963;42.666;23.366;2023-06-24T12:53:09;9.30;;;8.38;;
40204;SDS011;26963;42.666;23.366;2023-06-24T12:55:39;9.02;;;7.93;;
40204;SDS011;26963;42.666;23.366;2023-06-24T12:58:04;9.27;;;7.80;;
40204;SDS011;26963;42.666;23.366;2023-06-24T13:00:30;9.70;;;8.13;;
40204;SDS011;26963;42.666;23.366;2023-06-24T13:02:55;9.13;;;8.02;;
40204;SDS011;26963;42.666;23.366;2023-06-24T13:05:21;8.73;;;7.80;;
40204;SDS011;26963;42.666;23.366;2023-06-24T13:07:47;10.60;;;9.00;;
40204;SDS011;26963;42.666;23.366;2023-06-24T13:10:12;9.35;;;8.23;;
40204;SDS011;26963;42.666;23.366;2023-06-24T13:12:38;9.38;;;8.48;;
40204;SDS011;26963;42.666;23.366;2023-06-24T13:15:04;8.68;;;7.68;;
40204;SDS011;26963;42.666;23.366;2023-06-24T13:17:31;9.77;;;8.23;;
40204;SDS011;26963;42.666;23.366;2023-06-24T13:19:56;10.38;;;9.38;;
40204;SDS011;26963;42.666;23.366;2023-06-24T13:22:22;9.10;;;7.72;;
40204;SDS011;26963;42.666;23.366;2023-06-24T13:24:48;13.20;;;8.35;;
40204;SDS011;26963;42.666;23.366;2023-06-24T13:27:14;8.82;;;7.70;;
40204;SDS011;26963;42.666;23.366;2023-06-24T13:29:40;10.20;;;7.88;;
40204;SDS011;26963;42.666;23.366;2023-06-24T13:32:05;10.98;;;8.38;;
40204;SDS011;26963;42.666;23.366;2023-06-24T13:34:32;12.82;;;8.63;;
40204;SDS011;26963;42.666;23.366;2023-06-24T13:36:57;30.52;;;11.18;;
40204;SDS011;26963;42.666;23.366;2023-06-24T13:39:23;20.30;;;9.10;;
40204;SDS011;26963;42.666;23.366;2023-06-24T13:41:49;18.85;;;8.90;;
40204;SDS011;26963;42.666;23.366;2023-06-24T13:44:15;15.93;;;8.30;;
40204;SDS011;26963;42.666;23.366;2023-06-24T13:46:41;26.35;;;8.57;;
40204;SDS011;26963;42.666;23.366;2023-06-24T13:49:06;19.92;;;9.65;;
40204;SDS011;26963;42.666;23.366;2023-06-24T13:51:32;28.52;;;8.20;;
40204;SDS011;26963;42.666;23.366;2023-06-24T13:53:58;16.85;;;8.30;;
40204;SDS011;26963;42.666;23.366;2023-06-24T13:56:24;19.40;;;6.80;;
40204;SDS011;26963;42.666;23.366;2023-06-24T13:58:51;14.85;;;7.72;;
40204;SDS011;26963;42.666;23.366;2023-06-24T14:01:18;19.05;;;9.18;;
40204;SDS011;26963;42.666;23.366;2023-06-24T14:03:43;16.35;;;8.00;;
40204;SDS011;26963;42.666;23.366;2023-06-24T14:06:10;11.80;;;8.50;;
40204;SDS011;26963;42.666;23.366;2023-06-24T14:08:36;13.57;;;8.30;;
40204;SDS011;26963;42.666;23.366;2023-06-24T14:11:02;15.65;;;10.85;;
40204;SDS011;26963;42.666;23.366;2023-06-24T14:13:28;14.15;;;7.63;;
40204;SDS011;26963;42.666;23.366;2023-06-24T14:15:55;14.93;;;6.82;;
40204;SDS011;26963;42.666;23.366;2023-06-24T14:18:21;13.68;;;7.57;;
40204;SDS011;26963;42.666;23.366;2023-06-24T14:20:47;11.95;;;6.78;;
40204;SDS011;26963;42.666;23.366;2023-06-24T14:23:12;17.27;;;7.80;;
40204;SDS011;26963;42.666;23.366;2023-06-24T14:25:38;14.93;;;7.10;;
40204;SDS011;26963;42.666;23.366;2023-06-24T14:28:04;17.58;;;9.65;;
40204;SDS011;26963;42.666;23.366;2023-06-24T14:30:30;12.32;;;7.38;;
40204;SDS011;26963;42.666;23.366;2023-06-24T14:32:55;15.80;;;7.47;;
40204;SDS011;26963;42.666;23.366;2023-06-24T14:35:21;14.55;;;7.00;;
40204;SDS011;26963;42.666;23.366;2023-06-24T14:37:47;15.88;;;7.07;;
40204;SDS011;26963;42.666;23.366;2023-06-24T14:40:13;14.85;;;8.15;;
40204;SDS011;26963;42.666;23.366;2023-06-24T14:42:38;15.82;;;7.15;;
40204;SDS011;26963;42.666;23.366;2023-06-24T14:45:04;11.20;;;6.72;;